Etusivu
METAR-TAF:

METAR-TAF

Lentoasemat :

St. Paul Downtown Airport (Holman Field)

Saint Paul, Minnesota, Yhdysvallat

Leveyspiiri: 44-55-49N, Pituuspiiri: 093-02-53W, korkeus merenpinnasta: 214 m

Tämänhetkinen sää

Tämä raportti tehtiin 26 minuuttia sitten, kello 11.53 UTC
Tuuli 10 kn etelästä
Lämpötila -6°C
Kosteus 62%
Ilmanpaine 1013 hPa
Näkyvyys: 16.1 km
Hajanaisia pilviä 10000 ft:n korkeudessa

METAR: KSTP 131153Z 17010KT 10SM SCT100 M06/M12 A2991 RMK AO2 SLP139 T10611122 11061 21078 56021

Aika: 06:19 (12:19 UTC)


TAF: puuttuu

Säähavainnot ja -ennusteet yli 4000 lentoasemalta (METAR- ja TAF-raportit).

Käytössä olevat sääasemat on merkitty karttaan keltaisilla ja punaisilla pisteillä.

Aseta hiiri pisteen päälle nähdäksesi sääaseman nimen.

Klikkaa sitten nähdäksesi säähavainnot ja -ennusteet.

Kartan vaihtaminen: klikkaa mustalla rastilla varustettuja vihreitä pisteitä, niin voit zoomata sisään; viivalla varustettua vihreää pistettä, niin voit zoomata ulos tai vihreitä nuolia, niin pääset viereisille kartoille.


METAR-TAF: